DLH595 DNAA-EDDF
Flight info
| Callsign | DLH595 |
|---|---|
| Flight time | N/A |
| Altitude | 37000 |
| Route | OXORU1Q OXORU DCT MIMBA/N0475F380 UA604 AS UR978 ELO/N0465F400 UR978 CSO UA605 CIRTA DCT ERETI DCT OMARD DCT NOSTA DCT NOPMU DCT ABESI DCT LADOL T163 EMPAX EMPAX5A |
| Aircraft | A343/H-SDE2E3FGHIJ4J5M1RWXY/LB1D1 |
Departure
| Time | 2026-05-01 13:48 |
|---|---|
| Airport | Nnamdi Azikiwe International Airport (DNAA) |
Arrival
| Time | N/A |
|---|---|
| Airport | Frankfurt Main Airport (EDDF) |
| Time | Latitude | Longitude | Altitude | Speed | Heading |
|---|---|---|---|---|---|
| 2026-05-01 12:43 | 9.00576 | 7.26831 | 1135 ft | 0 kts | 0° |
| 2026-05-01 13:35 | 9.00547 | 7.26833 | 1134 ft | 3 kts | 346° |
| 2026-05-01 13:35 | 9.00528 | 7.26840 | 1136 ft | 3 kts | 327° |
| 2026-05-01 13:35 | 9.00512 | 7.26868 | 1135 ft | 1 kts | 250° |
| 2026-05-01 13:36 | 9.00513 | 7.26872 | 1135 ft | 0 kts | 250° |
| 2026-05-01 13:39 | 9.00511 | 7.26866 | 1141 ft | 2 kts | 250° |
| 2026-05-01 13:39 | 9.00501 | 7.26838 | 1135 ft | 7 kts | 250° |
| 2026-05-01 13:39 | 9.00486 | 7.26794 | 1131 ft | 0 kts | 250° |
| 2026-05-01 13:41 | 9.00476 | 7.26767 | 1134 ft | 8 kts | 250° |
| 2026-05-01 13:41 | 9.00449 | 7.26693 | 1134 ft | 14 kts | 256° |
| 2026-05-01 13:42 | 9.00513 | 7.26606 | 1117 ft | 20 kts | 330° |
| 2026-05-01 13:42 | 9.00625 | 7.26505 | 1114 ft | 20 kts | 335° |
| 2026-05-01 13:42 | 9.00667 | 7.26511 | 1112 ft | 7 kts | 30° |
| 2026-05-01 13:42 | 9.00726 | 7.26555 | 1116 ft | 15 kts | 35° |
| 2026-05-01 13:43 | 9.00834 | 7.26631 | 1116 ft | 23 kts | 34° |
| 2026-05-01 13:43 | 9.00990 | 7.26741 | 1117 ft | 32 kts | 36° |
| 2026-05-01 13:43 | 9.01183 | 7.26878 | 1136 ft | 34 kts | 35° |
| 2026-05-01 13:43 | 9.01352 | 7.26997 | 1135 ft | 23 kts | 35° |
| 2026-05-01 13:44 | 9.01492 | 7.27096 | 1137 ft | 26 kts | 35° |
| 2026-05-01 13:44 | 9.01653 | 7.27209 | 1136 ft | 30 kts | 35° |
| 2026-05-01 13:44 | 9.01825 | 7.27331 | 1137 ft | 24 kts | 35° |
| 2026-05-01 13:44 | 9.01847 | 7.27346 | 1139 ft | 4 kts | 35° |
| 2026-05-01 13:45 | 9.01897 | 7.27367 | 1136 ft | 11 kts | 4° |
| 2026-05-01 13:45 | 9.01940 | 7.27342 | 1138 ft | 1 kts | 303° |
| 2026-05-01 13:45 | 9.01959 | 7.27313 | 1137 ft | 9 kts | 303° |
| 2026-05-01 13:45 | 9.01975 | 7.27234 | 1136 ft | 15 kts | 241° |
| 2026-05-01 13:46 | 9.01917 | 7.27191 | 1137 ft | 0 kts | 214° |
| 2026-05-01 13:46 | 9.01916 | 7.27190 | 1137 ft | 0 kts | 214° |
| 2026-05-01 13:47 | 9.01835 | 7.27133 | 1134 ft | 39 kts | 214° |
| 2026-05-01 13:47 | 9.01464 | 7.26869 | 1135 ft | 91 kts | 215° |
| 2026-05-01 13:47 | 9.00816 | 7.26411 | 1109 ft | 135 kts | 214° |
| 2026-05-01 13:48 | 8.99942 | 7.25791 | 1105 ft | 171 kts | 215° |
| 2026-05-01 13:48 | 8.98964 | 7.25089 | 1522 ft | 171 kts | 215° |
| 2026-05-01 13:48 | 8.98289 | 7.24104 | 1893 ft | 178 kts | 259° |
| 2026-05-01 13:48 | 8.98579 | 7.22874 | 2159 ft | 195 kts | 307° |
| 2026-05-01 13:49 | 8.99775 | 7.22144 | 2375 ft | 214 kts | 350° |
| 2026-05-01 13:49 | 9.01246 | 7.21751 | 2735 ft | 225 kts | 333° |
| 2026-05-01 13:49 | 9.02632 | 7.20973 | 3367 ft | 228 kts | 330° |
| 2026-05-01 13:49 | 9.04001 | 7.20159 | 4100 ft | 229 kts | 330° |
| 2026-05-01 13:50 | 9.05408 | 7.19323 | 4613 ft | 243 kts | 330° |
| 2026-05-01 13:50 | 9.06921 | 7.18430 | 4974 ft | 259 kts | 330° |
| 2026-05-01 13:50 | 9.08485 | 7.17509 | 5702 ft | 260 kts | 331° |
| 2026-05-01 13:50 | 9.10048 | 7.16589 | 6474 ft | 260 kts | 332° |
| 2026-05-01 13:51 | 9.11600 | 7.15675 | 7165 ft | 262 kts | 332° |
| 2026-05-01 13:51 | 9.13189 | 7.14741 | 7830 ft | 266 kts | 333° |
| 2026-05-01 13:51 | 9.14903 | 7.14051 | 8468 ft | 265 kts | 355° |
| 2026-05-01 13:51 | 9.16735 | 7.14199 | 9011 ft | 270 kts | 18° |
| 2026-05-01 13:52 | 9.18556 | 7.14777 | 9568 ft | 277 kts | 22° |
| 2026-05-01 13:52 | 9.20401 | 7.15413 | 10111 ft | 285 kts | 21° |
| 2026-05-01 13:52 | 9.22342 | 7.16072 | 10408 ft | 303 kts | 21° |
| 2026-05-01 13:52 | 9.24397 | 7.16757 | 10661 ft | 320 kts | 20° |
| 2026-05-01 13:53 | 9.26567 | 7.17471 | 10914 ft | 336 kts | 20° |
| 2026-05-01 13:53 | 9.31226 | 7.18995 | 11345 ft | 365 kts | 19° |
| 2026-05-01 13:53 | 9.33673 | 7.19794 | 11716 ft | 373 kts | 19° |
| 2026-05-01 13:54 | 9.36167 | 7.20607 | 12165 ft | 378 kts | 19° |
| 2026-05-01 13:54 | 9.38649 | 7.21416 | 12627 ft | 382 kts | 19° |
| 2026-05-01 13:54 | 9.41185 | 7.22244 | 13111 ft | 385 kts | 19° |
| 2026-05-01 13:54 | 9.43749 | 7.23082 | 13620 ft | 389 kts | 19° |
| 2026-05-01 13:55 | 9.46335 | 7.23927 | 14050 ft | 392 kts | 19° |
| 2026-05-01 13:55 | 9.48944 | 7.24779 | 14489 ft | 395 kts | 19° |
| 2026-05-01 13:55 | 9.51569 | 7.25638 | 14926 ft | 398 kts | 19° |
| 2026-05-01 13:55 | 9.54221 | 7.26505 | 15372 ft | 401 kts | 19° |
| 2026-05-01 13:56 | 9.56897 | 7.27380 | 15825 ft | 405 kts | 20° |
| 2026-05-01 13:56 | 9.59587 | 7.28260 | 16258 ft | 408 kts | 20° |
| 2026-05-01 13:56 | 9.62297 | 7.29147 | 16708 ft | 411 kts | 20° |
| 2026-05-01 13:56 | 9.65030 | 7.30041 | 17173 ft | 414 kts | 20° |
| 2026-05-01 13:57 | 9.67787 | 7.30944 | 17639 ft | 418 kts | 20° |
| 2026-05-01 13:57 | 9.69622 | 7.31544 | 17958 ft | 420 kts | 21° |
| 2026-05-01 13:57 | 9.73360 | 7.32768 | 18505 ft | 424 kts | 21° |
| 2026-05-01 13:57 | 9.76186 | 7.33693 | 18916 ft | 427 kts | 21° |
| 2026-05-01 13:58 | 9.79023 | 7.34623 | 19264 ft | 432 kts | 20° |
| 2026-05-01 13:58 | 9.81897 | 7.35564 | 19681 ft | 435 kts | 20° |
| 2026-05-01 13:58 | 9.84779 | 7.36508 | 20113 ft | 437 kts | 20° |
| 2026-05-01 13:58 | 9.87683 | 7.37459 | 20535 ft | 439 kts | 20° |
| 2026-05-01 13:59 | 9.90603 | 7.38394 | 20942 ft | 442 kts | 19° |
| 2026-05-01 13:59 | 9.93513 | 7.39306 | 21320 ft | 445 kts | 19° |
| 2026-05-01 13:59 | 9.96484 | 7.40230 | 21731 ft | 447 kts | 19° |
| 2026-05-01 13:59 | 9.99471 | 7.41158 | 22124 ft | 450 kts | 19° |
| 2026-05-01 14:00 | 10.02466 | 7.42091 | 22515 ft | 452 kts | 19° |
| 2026-05-01 14:00 | 10.05488 | 7.43036 | 22896 ft | 455 kts | 19° |
| 2026-05-01 14:00 | 10.08529 | 7.43991 | 23272 ft | 458 kts | 19° |
| 2026-05-01 14:00 | 10.11576 | 7.44948 | 23610 ft | 460 kts | 19° |
| 2026-05-01 14:01 | 10.14652 | 7.45915 | 23898 ft | 463 kts | 19° |
| 2026-05-01 14:01 | 10.17727 | 7.46883 | 24206 ft | 465 kts | 19° |
| 2026-05-01 14:01 | 10.19784 | 7.47530 | 24409 ft | 467 kts | 19° |
| 2026-05-01 14:01 | 10.22895 | 7.48508 | 24717 ft | 469 kts | 18° |
| 2026-05-01 14:02 | 10.26016 | 7.49490 | 25036 ft | 471 kts | 18° |
| 2026-05-01 14:02 | 10.29157 | 7.50479 | 25352 ft | 473 kts | 18° |
| 2026-05-01 14:02 | 10.32304 | 7.51470 | 25662 ft | 475 kts | 18° |
| 2026-05-01 14:02 | 10.35471 | 7.52467 | 25966 ft | 477 kts | 18° |
| 2026-05-01 14:03 | 10.38654 | 7.53469 | 26254 ft | 479 kts | 18° |
| 2026-05-01 14:03 | 10.41845 | 7.54474 | 26564 ft | 481 kts | 18° |
| 2026-05-01 14:03 | 10.45056 | 7.55486 | 26863 ft | 484 kts | 18° |
| 2026-05-01 14:03 | 10.48280 | 7.56502 | 27158 ft | 486 kts | 18° |
| 2026-05-01 14:04 | 10.51472 | 7.57508 | 27481 ft | 487 kts | 19° |
| 2026-05-01 14:04 | 10.54711 | 7.58529 | 27787 ft | 489 kts | 19° |
| 2026-05-01 14:04 | 10.57969 | 7.59556 | 28064 ft | 490 kts | 18° |
| 2026-05-01 14:04 | 10.61230 | 7.60585 | 28362 ft | 492 kts | 18° |
| 2026-05-01 14:05 | 10.64517 | 7.61622 | 28640 ft | 494 kts | 18° |
| 2026-05-01 14:05 | 10.67812 | 7.62662 | 28907 ft | 496 kts | 18° |
| 2026-05-01 14:05 | 10.71117 | 7.63705 | 29232 ft | 496 kts | 18° |
| 2026-05-01 14:05 | 10.74404 | 7.64742 | 29651 ft | 495 kts | 18° |
| 2026-05-01 14:06 | 10.77690 | 7.65779 | 30000 ft | 494 kts | 18° |
| 2026-05-01 14:06 | 10.80931 | 7.66803 | 30298 ft | 493 kts | 18° |
| 2026-05-01 14:06 | 10.84200 | 7.67835 | 30585 ft | 493 kts | 18° |
| 2026-05-01 14:06 | 10.87471 | 7.68869 | 30882 ft | 492 kts | 18° |
| 2026-05-01 14:07 | 10.90745 | 7.69904 | 31156 ft | 491 kts | 18° |
| 2026-05-01 14:07 | 10.94010 | 7.70936 | 31458 ft | 490 kts | 18° |
| 2026-05-01 14:07 | 10.97258 | 7.71963 | 31731 ft | 490 kts | 18° |
| 2026-05-01 14:08 | 11.03755 | 7.74018 | 32303 ft | 488 kts | 18° |
| 2026-05-01 14:08 | 11.07001 | 7.75045 | 32574 ft | 488 kts | 18° |
| 2026-05-01 14:08 | 11.10245 | 7.76072 | 32830 ft | 487 kts | 18° |
| 2026-05-01 14:08 | 11.13475 | 7.77094 | 33102 ft | 486 kts | 18° |
| 2026-05-01 14:09 | 11.16712 | 7.78119 | 33360 ft | 486 kts | 18° |
| 2026-05-01 14:09 | 11.19938 | 7.79141 | 33627 ft | 485 kts | 18° |
| 2026-05-01 14:09 | 11.23160 | 7.80162 | 33878 ft | 484 kts | 18° |
| 2026-05-01 14:09 | 11.26375 | 7.81181 | 34117 ft | 483 kts | 18° |
| 2026-05-01 14:10 | 11.29587 | 7.82199 | 34305 ft | 483 kts | 18° |
| 2026-05-01 14:10 | 11.32798 | 7.83217 | 34504 ft | 483 kts | 18° |
| 2026-05-01 14:10 | 11.36012 | 7.84236 | 34691 ft | 483 kts | 18° |
| 2026-05-01 14:10 | 11.39223 | 7.85254 | 34894 ft | 483 kts | 18° |
| 2026-05-01 14:11 | 11.42425 | 7.86270 | 35079 ft | 482 kts | 18° |
| 2026-05-01 14:11 | 11.48795 | 7.88292 | 35447 ft | 482 kts | 18° |
| 2026-05-01 14:11 | 11.51991 | 7.89306 | 35643 ft | 482 kts | 18° |
| 2026-05-01 14:12 | 11.55193 | 7.90323 | 35806 ft | 481 kts | 18° |
| 2026-05-01 14:12 | 11.58391 | 7.91338 | 36012 ft | 480 kts | 18° |
| 2026-05-01 14:12 | 11.61576 | 7.92350 | 36284 ft | 478 kts | 18° |
| 2026-05-01 14:12 | 11.64748 | 7.93358 | 36461 ft | 477 kts | 18° |
| 2026-05-01 14:13 | 11.67926 | 7.94368 | 36593 ft | 478 kts | 18° |
| 2026-05-01 14:13 | 11.71065 | 7.95366 | 36743 ft | 478 kts | 18° |
| 2026-05-01 14:13 | 11.74278 | 7.96388 | 36875 ft | 478 kts | 18° |
| 2026-05-01 14:13 | 11.77415 | 7.97386 | 37037 ft | 478 kts | 18° |
| 2026-05-01 14:14 | 11.80598 | 7.98398 | 37172 ft | 478 kts | 18° |
| 2026-05-01 14:14 | 11.83780 | 7.99411 | 37316 ft | 478 kts | 18° |
| 2026-05-01 14:14 | 11.86949 | 8.00419 | 37474 ft | 478 kts | 19° |
| 2026-05-01 14:14 | 11.90129 | 8.01432 | 37606 ft | 478 kts | 18° |
| 2026-05-01 14:15 | 11.93308 | 8.02444 | 37756 ft | 478 kts | 19° |
| 2026-05-01 14:15 | 11.96487 | 8.03457 | 37795 ft | 480 kts | 18° |
| 2026-05-01 14:15 | 12.02872 | 8.05491 | 37798 ft | 480 kts | 18° |
| 2026-05-01 14:16 | 12.09205 | 8.07510 | 37800 ft | 479 kts | 18° |
| 2026-05-01 14:16 | 12.15567 | 8.09540 | 37797 ft | 478 kts | 18° |
| 2026-05-01 14:17 | 12.21929 | 8.11571 | 37803 ft | 478 kts | 18° |
| 2026-05-01 14:17 | 12.28292 | 8.13603 | 37803 ft | 479 kts | 18° |
| 2026-05-01 14:18 | 12.34648 | 8.15634 | 37804 ft | 479 kts | 18° |
| 2026-05-01 14:18 | 12.39942 | 8.17325 | 37801 ft | 480 kts | 18° |
| 2026-05-01 14:19 | 12.47393 | 8.19707 | 37802 ft | 480 kts | 18° |
| 2026-05-01 14:19 | 12.53721 | 8.21732 | 37801 ft | 479 kts | 18° |
| 2026-05-01 14:20 | 12.63276 | 8.24792 | 37804 ft | 480 kts | 18° |
| 2026-05-01 14:21 | 12.69652 | 8.26834 | 37798 ft | 481 kts | 18° |
| 2026-05-01 14:21 | 12.76059 | 8.28888 | 37802 ft | 482 kts | 18° |
| 2026-05-01 14:22 | 12.85650 | 8.31964 | 37801 ft | 482 kts | 18° |
| 2026-05-01 14:22 | 12.92046 | 8.34017 | 37801 ft | 482 kts | 18° |
| 2026-05-01 14:23 | 12.98446 | 8.36072 | 37794 ft | 481 kts | 18° |
| 2026-05-01 14:23 | 13.04846 | 8.38100 | 37793 ft | 482 kts | 15° |
| 2026-05-01 14:24 | 13.11475 | 8.38870 | 37803 ft | 484 kts | 358° |
| 2026-05-01 14:24 | 13.18201 | 8.38414 | 37794 ft | 485 kts | 355° |
| 2026-05-01 14:25 | 13.24927 | 8.37755 | 37799 ft | 485 kts | 354° |
| 2026-05-01 14:25 | 13.31652 | 8.37086 | 37798 ft | 486 kts | 355° |
| 2026-05-01 14:26 | 13.41748 | 8.36127 | 37793 ft | 486 kts | 355° |
| 2026-05-01 14:27 | 13.48489 | 8.35498 | 37793 ft | 486 kts | 355° |
| 2026-05-01 14:27 | 13.55175 | 8.34874 | 37788 ft | 486 kts | 355° |
| 2026-05-01 14:28 | 13.65283 | 8.33928 | 37784 ft | 486 kts | 355° |
| 2026-05-01 14:28 | 13.72021 | 8.33297 | 37789 ft | 485 kts | 354° |
| 2026-05-01 14:29 | 13.78767 | 8.32667 | 37782 ft | 487 kts | 354° |
| 2026-05-01 14:30 | 13.92254 | 8.31395 | 37785 ft | 488 kts | 354° |
| 2026-05-01 14:31 | 14.02402 | 8.30438 | 37785 ft | 488 kts | 354° |
| 2026-05-01 14:31 | 14.09132 | 8.29804 | 37791 ft | 488 kts | 354° |
| 2026-05-01 14:32 | 14.15890 | 8.29167 | 37785 ft | 488 kts | 354° |
| 2026-05-01 14:32 | 14.22658 | 8.28528 | 37791 ft | 488 kts | 354° |
| 2026-05-01 14:33 | 14.29424 | 8.27889 | 37790 ft | 488 kts | 354° |
| 2026-05-01 14:33 | 14.36195 | 8.27249 | 37794 ft | 488 kts | 354° |
| 2026-05-01 14:34 | 14.42957 | 8.26610 | 37792 ft | 488 kts | 354° |
| 2026-05-01 14:34 | 14.49716 | 8.25971 | 37792 ft | 488 kts | 354° |
| 2026-05-01 14:35 | 14.56435 | 8.25335 | 37798 ft | 488 kts | 354° |
| 2026-05-01 14:35 | 14.63192 | 8.24695 | 37797 ft | 488 kts | 354° |
| 2026-05-01 14:36 | 14.69960 | 8.24054 | 37794 ft | 488 kts | 354° |
| 2026-05-01 14:36 | 14.76728 | 8.23412 | 37797 ft | 488 kts | 354° |
| 2026-05-01 14:37 | 14.83485 | 8.22771 | 37797 ft | 488 kts | 354° |
| 2026-05-01 14:37 | 14.90254 | 8.22128 | 37799 ft | 488 kts | 353° |
| 2026-05-01 14:38 | 14.96977 | 8.21489 | 37801 ft | 488 kts | 353° |
| 2026-05-01 14:38 | 15.03742 | 8.20846 | 37802 ft | 488 kts | 354° |
| 2026-05-01 14:39 | 15.10485 | 8.20209 | 37807 ft | 488 kts | 354° |
| 2026-05-01 14:39 | 15.17252 | 8.19568 | 37807 ft | 488 kts | 353° |
| 2026-05-01 14:40 | 15.24001 | 8.18926 | 37807 ft | 487 kts | 353° |
| 2026-05-01 14:40 | 15.30714 | 8.18288 | 37808 ft | 487 kts | 353° |
| 2026-05-01 14:41 | 15.37499 | 8.17643 | 37814 ft | 487 kts | 353° |
| 2026-05-01 14:41 | 15.44214 | 8.17006 | 37811 ft | 487 kts | 353° |
| 2026-05-01 14:42 | 15.50958 | 8.16365 | 37815 ft | 486 kts | 353° |
| 2026-05-01 14:42 | 15.57701 | 8.15723 | 37814 ft | 485 kts | 353° |
| 2026-05-01 14:43 | 15.64425 | 8.15083 | 37818 ft | 485 kts | 353° |
| 2026-05-01 14:43 | 15.71097 | 8.14447 | 37817 ft | 485 kts | 353° |
| 2026-05-01 14:44 | 15.77826 | 8.13806 | 37818 ft | 485 kts | 353° |
| 2026-05-01 14:44 | 15.87912 | 8.12844 | 37818 ft | 485 kts | 352° |
| 2026-05-01 14:45 | 15.97945 | 8.11885 | 37821 ft | 484 kts | 352° |
| 2026-05-01 14:46 | 16.04667 | 8.11243 | 37820 ft | 484 kts | 352° |
| 2026-05-01 14:46 | 16.14742 | 8.10279 | 37820 ft | 484 kts | 352° |
| 2026-05-01 14:47 | 16.21458 | 8.09636 | 37820 ft | 484 kts | 352° |
| 2026-05-01 14:48 | 16.31545 | 8.08669 | 37817 ft | 485 kts | 352° |
| 2026-05-01 14:48 | 16.41578 | 8.07707 | 37815 ft | 485 kts | 352° |
| 2026-05-01 14:49 | 16.55034 | 8.06415 | 37817 ft | 485 kts | 352° |
| 2026-05-01 14:50 | 16.67331 | 8.05233 | 37814 ft | 484 kts | 352° |
| 2026-05-01 14:51 | 16.77381 | 8.04264 | 37809 ft | 484 kts | 352° |
| 2026-05-01 14:52 | 16.87404 | 8.03298 | 37809 ft | 484 kts | 352° |
| 2026-05-01 14:52 | 16.94104 | 8.02652 | 37912 ft | 484 kts | 352° |
| 2026-05-01 14:53 | 16.97461 | 8.02328 | 37909 ft | 484 kts | 352° |
| 2026-05-01 14:53 | 17.04181 | 8.01742 | 37908 ft | 484 kts | 352° |
| 2026-05-01 14:54 | 17.10899 | 8.01225 | 37890 ft | 484 kts | 353° |
| 2026-05-01 14:54 | 17.17622 | 8.00702 | 37863 ft | 484 kts | 352° |
| 2026-05-01 14:55 | 17.24344 | 8.00167 | 37856 ft | 484 kts | 352° |
| 2026-05-01 14:55 | 17.31022 | 7.99628 | 37818 ft | 484 kts | 352° |
| 2026-05-01 14:56 | 17.37742 | 7.99085 | 37818 ft | 484 kts | 352° |
| 2026-05-01 14:56 | 17.44458 | 7.98543 | 37816 ft | 484 kts | 352° |
| 2026-05-01 14:57 | 17.51171 | 7.98000 | 37817 ft | 484 kts | 352° |
| 2026-05-01 14:57 | 17.61258 | 7.97185 | 37806 ft | 484 kts | 352° |
| 2026-05-01 14:58 | 17.67980 | 7.96641 | 37808 ft | 484 kts | 352° |
| 2026-05-01 14:58 | 17.74663 | 7.96100 | 37800 ft | 484 kts | 352° |
| 2026-05-01 14:59 | 17.81390 | 7.95555 | 37805 ft | 484 kts | 352° |
| 2026-05-01 14:59 | 17.88116 | 7.95009 | 37801 ft | 484 kts | 352° |
| 2026-05-01 15:00 | 17.98209 | 7.94190 | 37808 ft | 484 kts | 352° |
| 2026-05-01 15:01 | 18.04888 | 7.93648 | 37806 ft | 484 kts | 352° |
| 2026-05-01 15:01 | 18.11611 | 7.93101 | 37806 ft | 484 kts | 352° |
| 2026-05-01 15:02 | 18.18329 | 7.92554 | 37805 ft | 484 kts | 352° |
| 2026-05-01 15:02 | 18.25047 | 7.92007 | 37802 ft | 484 kts | 352° |
| 2026-05-01 15:03 | 18.31768 | 7.91460 | 37803 ft | 483 kts | 351° |
| 2026-05-01 15:03 | 18.38468 | 7.90913 | 37803 ft | 482 kts | 351° |
| 2026-05-01 15:04 | 18.45157 | 7.90367 | 37802 ft | 482 kts | 351° |
| 2026-05-01 15:04 | 18.51808 | 7.89824 | 37814 ft | 482 kts | 351° |
| 2026-05-01 15:05 | 18.58497 | 7.89277 | 37797 ft | 482 kts | 351° |
| 2026-05-01 15:05 | 18.65187 | 7.88729 | 37807 ft | 482 kts | 351° |
| 2026-05-01 15:06 | 18.71869 | 7.88182 | 37808 ft | 481 kts | 351° |
| 2026-05-01 15:06 | 18.78559 | 7.87634 | 37809 ft | 481 kts | 351° |
| 2026-05-01 15:07 | 18.85189 | 7.87090 | 37810 ft | 481 kts | 351° |
| 2026-05-01 15:07 | 18.91876 | 7.86542 | 37809 ft | 481 kts | 351° |
| 2026-05-01 15:08 | 18.98554 | 7.85993 | 37812 ft | 481 kts | 350° |
| 2026-05-01 15:08 | 19.05219 | 7.85446 | 37812 ft | 480 kts | 350° |
| 2026-05-01 15:09 | 19.11837 | 7.84901 | 37821 ft | 480 kts | 350° |
| 2026-05-01 15:09 | 19.18492 | 7.84352 | 37820 ft | 480 kts | 350° |
| 2026-05-01 15:10 | 19.25164 | 7.83802 | 37826 ft | 480 kts | 350° |
| 2026-05-01 15:10 | 19.35162 | 7.82978 | 37826 ft | 480 kts | 349° |
| 2026-05-01 15:11 | 19.45156 | 7.82151 | 37826 ft | 480 kts | 349° |
| 2026-05-01 15:12 | 19.51775 | 7.81605 | 37836 ft | 480 kts | 349° |
| 2026-05-01 15:12 | 19.61774 | 7.80810 | 37835 ft | 480 kts | 350° |
| 2026-05-01 15:14 | 19.78377 | 7.79496 | 37842 ft | 478 kts | 349° |
| 2026-05-01 15:14 | 19.88330 | 7.78703 | 37843 ft | 478 kts | 349° |
| 2026-05-01 15:15 | 20.01596 | 7.77644 | 37847 ft | 476 kts | 349° |
| 2026-05-01 15:16 | 20.14736 | 7.76594 | 37854 ft | 474 kts | 349° |
| 2026-05-01 15:18 | 20.31198 | 7.75274 | 37875 ft | 475 kts | 348° |
| 2026-05-01 15:19 | 20.44348 | 7.74220 | 37854 ft | 473 kts | 348° |
| 2026-05-01 15:19 | 20.54201 | 7.73426 | 37855 ft | 473 kts | 348° |
| 2026-05-01 15:20 | 20.63992 | 7.72638 | 37877 ft | 473 kts | 348° |
| 2026-05-01 15:21 | 20.70548 | 7.72110 | 37863 ft | 472 kts | 348° |
| 2026-05-01 15:21 | 20.77110 | 7.71581 | 37856 ft | 472 kts | 348° |
| 2026-05-01 15:22 | 20.86925 | 7.70789 | 37861 ft | 472 kts | 348° |
| 2026-05-01 15:22 | 20.93481 | 7.70259 | 37864 ft | 472 kts | 348° |
| 2026-05-01 15:23 | 21.00028 | 7.69678 | 37868 ft | 469 kts | 345° |
| 2026-05-01 15:23 | 21.06468 | 7.68762 | 37866 ft | 466 kts | 343° |
| 2026-05-01 15:24 | 21.12860 | 7.67779 | 37864 ft | 467 kts | 344° |
| 2026-05-01 15:24 | 21.19300 | 7.66838 | 37865 ft | 467 kts | 344° |
| 2026-05-01 15:25 | 21.25754 | 7.65929 | 37871 ft | 467 kts | 344° |
| 2026-05-01 15:25 | 21.32202 | 7.65029 | 37871 ft | 467 kts | 344° |
| 2026-05-01 15:26 | 21.38651 | 7.64127 | 37870 ft | 467 kts | 344° |
| 2026-05-01 15:26 | 21.45104 | 7.63222 | 37871 ft | 467 kts | 344° |
| 2026-05-01 15:27 | 21.51555 | 7.62315 | 37870 ft | 467 kts | 344° |
| 2026-05-01 15:28 | 21.61225 | 7.60955 | 37871 ft | 467 kts | 344° |
| 2026-05-01 15:28 | 21.67628 | 7.60055 | 37871 ft | 466 kts | 344° |
| 2026-05-01 15:29 | 21.77252 | 7.58698 | 37871 ft | 464 kts | 344° |
| 2026-05-01 15:30 | 21.88973 | 7.57043 | 37872 ft | 463 kts | 344° |
| 2026-05-01 15:31 | 22.09151 | 7.54188 | 37879 ft | 461 kts | 343° |
| 2026-05-01 15:32 | 22.21883 | 7.52381 | 37880 ft | 461 kts | 343° |
| 2026-05-01 15:34 | 22.40945 | 7.49670 | 37887 ft | 461 kts | 343° |